Greenfield, MA (01301)

9:51 AM EDT on October 30, 2014 (GMT -0400)
Beacon Field | Change Station
CLOSE
Current Station
Personal Weather Station
Location: Greenfield, MA
Elevation: 289 ft
Nearby Weather Stations

Elev 289 ft 42.60 °N, 72.59 °W | Updated 60 seconds ago

Overcast
Overcast
41.9 °F
Feels Like 42 °F
N
0.0
Wind Variable Wind from SE
Gusts 1.0 mph

Today
High -- | Low -- °F
--% Chance of Precip.
Yesterday
High -- | Low -- °F
Precip. -- in
7:21 AM 5:45 PM
Waxing Crescent, 44% visible
Pressure 29.96 in
Visibility 8.0 miles
Clouds Scattered Clouds 200 ft
Overcast 6500 ft
Windchill 42 °F
Dew Point 41 °F
Humidity 98%
Rainfall 0.00 in
Snow Depth Not available.
UV 0 out of 12
Pollen .90 out of 12
Air Quality Not available.
Flu Activity Not available.
SPECI KORE 301330Z AUTO 00000KT 8SM SCT002 OVC065 04/04 A2996 RMK AO2 T00440044

More Conditions Fewer Conditions

Pressure 29.96 in
Visibility 8.0 miles
Clouds Scattered Clouds 200 ft
Overcast 6500 ft
Windchill 42 °F
Dew Point 41 °F
Humidity 98%
Rainfall 0.00 in
Snow Depth Not available.
UV 0 out of 12
Pollen .90 out of 12
Air Quality Not available.
Flu Activity Not available.
SPECI KORE 301330Z AUTO 00000KT 8SM SCT002 OVC065 04/04 A2996 RMK AO2 T00440044

More Conditions Fewer Conditions

10-Day Weather Forecast

Almanac

Astronomy

Oct. 30, 2014 Rise Set
Actual Time
Civil Twilight
Nautical Twilight
Astronomical Twilight
Moon
Length of Visible Light
Length of Day
Tomorrow will be .
, % of the Moon is Illuminated

Today's Extremes

State Highs State Lows

Community

WunderPhotos

Upload Photos

1,766,358 photos uploaded!

WunderBlogs® & News

Nearby

Air Quality

  Air Quality AQ Index Pollutant
Not available.

Snow Depth

Station Depth Elevation

Earthquake Activity

City Distance Mag. Time & Date
Minimum magnitude displayed is 2.5.

Coastal Water Temperatures

Place Temperature

Nearby Weather Stations